| time (UTC) | temp F | wind direction | speed knots | gust knots | rain 1hr in | rain 24hr in | rain mn in | humidity % | barometer mb |
| 20260510115940 | 48 | 348 | 1.7 | 4.3 | 0.00 | 0.01 | 0.01 | 71 | 1010.2 |
| 20260510115438 | 48 | 26 | 0.0 | 1.7 | 0.00 | 0.01 | 0.01 | 73 | 1009.9 |
| 20260510114933 | 48 | 324 | 1.7 | 1.7 | 0.00 | 0.01 | 0.01 | 74 | 1010.2 |
| 20260510114430 | 48 | 7 | 0.9 | 2.6 | 0.00 | 0.01 | 0.01 | 74 | 1009.8 |
| 20260510113926 | 48 | 330 | 0.0 | 0.9 | 0.00 | 0.01 | 0.01 | 75 | 1009.4 |
| 20260510113421 | 48 | 354 | 2.6 | 2.6 | 0.00 | 0.01 | 0.01 | 76 | 1009.6 |
| 20260510112919 | 48 | 337 | 1.7 | 1.7 | 0.00 | 0.01 | 0.01 | 78 | 1009.4 |
| 20260510112417 | 48 | 343 | 0.9 | 4.3 | 0.00 | 0.01 | 0.01 | 78 | 1009.3 |
| 20260510111912 | 48 | 349 | 1.7 | 1.7 | 0.00 | 0.01 | 0.01 | 79 | 1009.4 |
| 20260510111408 | 48 | 357 | 2.6 | 2.6 | 0.00 | 0.01 | 0.01 | 81 | 1009.3 |
| 20260510110904 | 48 | 8 | 0.0 | 0.9 | 0.00 | 0.01 | 0.01 | 83 | 1009.1 |
| 20260510110400 | 48 | 352 | 3.5 | 2.6 | 0.00 | 0.01 | 0.01 | 83 | 1009.2 |
| 20260510105857 | 48 | 342 | 0.0 | 0.9 | 0.00 | 0.01 | 0.01 | 84 | 1009.0 |
| 20260510105351 | 48 | 344 | 1.7 | 1.7 | 0.00 | 0.01 | 0.01 | 84 | 1008.9 |
| 20260510104847 | 48 | 344 | 0.0 | 0.0 | 0.00 | 0.01 | 0.01 | 84 | 1008.7 |
| 20260510104344 | 47 | 344 | 0.0 | 0.0 | 0.00 | 0.01 | 0.01 | 84 | 1008.5 |
| 20260510103840 | 47 | 344 | 0.9 | 1.7 | 0.00 | 0.01 | 0.01 | 84 | 1008.2 |
| 20260510103338 | 47 | 343 | 0.0 | 0.9 | 0.00 | 0.01 | 0.01 | 84 | 1008.3 |
| 20260510102833 | 47 | 343 | 0.0 | 0.0 | 0.00 | 0.01 | 0.01 | 84 | 1008.2 |
| 20260510102329 | 48 | 343 | 0.0 | 0.9 | 0.00 | 0.01 | 0.01 | 84 | 1008.0 |
| 20260510101826 | 48 | 343 | 0.0 | 0.9 | 0.00 | 0.01 | 0.01 | 83 | 1007.9 |
| 20260510101325 | 48 | 343 | 0.0 | 0.0 | 0.00 | 0.01 | 0.01 | 83 | 1007.8 |
| 20260510100820 | 48 | 343 | 0.0 | 1.7 | 0.00 | 0.01 | 0.01 | 83 | 1007.6 |
| 20260510100318 | 48 | 343 | 1.7 | 1.7 | 0.00 | 0.01 | 0.01 | 83 | 1007.7 |
| 20260510095814 | 48 | 339 | 0.9 | 0.9 | 0.00 | 0.01 | 0.01 | 82 | 1007.5 |
| 20260510095309 | 48 | 339 | 0.9 | 1.7 | 0.00 | 0.01 | 0.01 | 82 | 1007.8 |
| 20260510094803 | 49 | 351 | 1.7 | 1.7 | 0.00 | 0.01 | 0.01 | 83 | 1007.8 |
| 20260510094258 | 49 | 353 | 0.9 | 1.7 | 0.00 | 0.01 | 0.01 | 82 | 1007.7 |
| 20260510093754 | 48 | 358 | 2.6 | 2.6 | 0.00 | 0.01 | 0.01 | 83 | 1007.6 |
| 20260510093251 | 49 | 0 | 0.0 | 0.0 | 0.00 | 0.01 | 0.01 | 84 | 1007.7 |
| 20260510092747 | 49 | 0 | 0.0 | 0.0 | 0.00 | 0.01 | 0.01 | 83 | 1007.3 |
| 20260510092243 | 49 | 0 | 0.0 | 0.0 | 0.00 | 0.01 | 0.01 | 83 | 1007.0 |
| 20260510091739 | 49 | 0 | 0.0 | 0.0 | 0.00 | 0.01 | 0.01 | 83 | 1007.0 |
| 20260510091237 | 49 | 0 | 0.0 | 0.0 | 0.00 | 0.01 | 0.01 | 83 | 1007.0 |
| 20260510090732 | 49 | 0 | 0.0 | 0.0 | 0.00 | 0.01 | 0.01 | 83 | 1006.9 |
| 20260510090230 | 49 | 0 | 0.0 | 0.0 | 0.00 | 0.01 | 0.01 | 82 | 1006.7 |
| 20260510085725 | 49 | 0 | 0.0 | 0.0 | 0.00 | 0.01 | 0.01 | 82 | 1006.7 |
| 20260510085220 | 49 | 0 | 0.0 | 0.0 | 0.00 | 0.01 | 0.01 | 81 | 1006.6 |
| 20260510084716 | 48 | 0 | 0.0 | 0.0 | 0.00 | 0.01 | 0.01 | 82 | 1006.6 |
| 20260510084213 | 49 | 0 | 0.0 | 0.0 | 0.00 | 0.01 | 0.01 | 86 | 1006.6 |
| 20260510083710 | 49 | 0 | 0.0 | 0.0 | 0.00 | 0.01 | 0.01 | 86 | 1006.5 |
| 20260510083207 | 50 | 0 | 0.0 | 0.0 | 0.00 | 0.01 | 0.01 | 84 | 1006.5 |
| 20260510082702 | 49 | 0 | 0.0 | 0.0 | 0.00 | 0.01 | 0.01 | 78 | 1006.4 |
| 20260510082159 | 49 | 0 | 0.0 | 0.0 | 0.00 | 0.01 | 0.01 | 83 | 1006.2 |
| 20260510081653 | 50 | 0 | 0.0 | 0.0 | 0.00 | 0.01 | 0.01 | 81 | 1006.4 |
| 20260510081149 | 50 | 0 | 0.0 | 0.0 | 0.00 | 0.01 | 0.01 | 82 | 1006.1 |
| 20260510080649 | 50 | 0 | 0.0 | 0.0 | 0.00 | 0.01 | 0.01 | 80 | 1006.0 |
| 20260510080146 | 50 | 0 | 0.0 | 0.0 | 0.00 | 0.01 | 0.01 | 77 | 1006.0 |
| 20260510075643 | 50 | 0 | 0.0 | 0.0 | 0.00 | 0.01 | 0.01 | 75 | 1006.0 |
| 20260510075140 | 50 | 0 | 0.0 | 0.0 | 0.00 | 0.01 | 0.01 | 75 | 1005.9 |
| 20260510074637 | 50 | 0 | 0.0 | 0.0 | 0.00 | 0.01 | 0.01 | 75 | 1005.5 |
| 20260510074133 | 50 | 0 | 0.0 | 0.0 | 0.00 | 0.01 | 0.01 | 74 | 1005.6 |
| 20260510073629 | 51 | 1 | 0.9 | 0.9 | 0.00 | 0.01 | 0.01 | 74 | 1005.7 |
| 20260510073126 | 51 | 359 | 0.0 | 0.0 | 0.00 | 0.01 | 0.01 | 74 | 1005.4 |
| 20260510072622 | 51 | 359 | 0.0 | 0.0 | 0.00 | 0.01 | 0.01 | 73 | 1005.6 |
| 20260510072119 | 51 | 359 | 0.0 | 0.0 | 0.00 | 0.01 | 0.01 | 73 | 1005.3 |
| 20260510071614 | 51 | 0 | 0.9 | 0.9 | 0.00 | 0.01 | 0.01 | 72 | 1005.4 |
| 20260510071112 | 51 | 358 | 0.9 | 1.7 | 0.00 | 0.01 | 0.01 | 73 | 1005.3 |
| 20260510070609 | 51 | 346 | 0.9 | 2.6 | 0.00 | 0.01 | 0.01 | 74 | 1005.3 |
| 20260510070107 | 51 | 351 | 0.0 | 1.7 | 0.00 | 0.01 | 0.01 | 73 | 1005.3 |
| 20260510065603 | 51 | 351 | 0.0 | 0.9 | 0.00 | 0.01 | 0.01 | 73 | 1005.2 |
| 20260510065059 | 52 | 351 | 0.9 | 1.7 | 0.00 | 0.01 | 0.01 | 74 | 1005.0 |
| 20260510064555 | 51 | 1 | 0.9 | 0.9 | 0.00 | 0.01 | 0.01 | 75 | 1004.9 |
| 20260510064052 | 51 | 341 | 0.9 | 1.7 | 0.00 | 0.01 | 0.01 | 77 | 1004.8 |
| 20260510063549 | 51 | 339 | 0.9 | 1.7 | 0.00 | 0.01 | 0.01 | 79 | 1005.2 |
| 20260510063046 | 51 | 338 | 1.7 | 2.6 | 0.00 | 0.01 | 0.01 | 80 | 1004.9 |
| 20260510062542 | 51 | 8 | 1.7 | 1.7 | 0.00 | 0.01 | 0.01 | 82 | 1004.8 |
| 20260510062037 | 51 | 4 | 0.9 | 1.7 | 0.00 | 0.01 | 0.01 | 82 | 1005.0 |
| 20260510061534 | 51 | 352 | 0.9 | 0.9 | 0.00 | 0.01 | 0.01 | 84 | 1005.0 |
| 20260510061031 | 51 | 324 | 1.7 | 1.7 | 0.00 | 0.01 | 0.01 | 84 | 1005.1 |
| 20260510060527 | 52 | 18 | 1.7 | 2.6 | 0.00 | 0.01 | 0.01 | 86 | 1004.9 |
| 20260510060023 | 52 | 356 | 2.6 | 2.6 | 0.00 | 0.01 | 0.01 | 86 | 1005.0 |
| 20260510055519 | 53 | 18 | 4.3 | 7.0 | 0.00 | 0.01 | 0.01 | 86 | 1004.8 |
| 20260510055018 | 54 | 2 | 6.1 | 7.0 | 0.00 | 0.01 | 0.01 | 95 | 1004.6 |
| 20260510054513 | 54 | 320 | 0.9 | 1.7 | 0.00 | 0.01 | 0.01 | 96 | 1004.2 |
| 20260510054009 | 54 | 220 | 0.0 | 0.0 | 0.00 | 0.01 | 0.01 | 96 | 1004.0 |
| 20260510053503 | 54 | 220 | 0.0 | 0.0 | 0.00 | 0.01 | 0.01 | 96 | 1004.2 |
| 20260510053000 | 54 | 220 | 0.0 | 0.0 | 0.00 | 0.01 | 0.01 | 96 | 1004.0 |
| 20260510052456 | 54 | 220 | 0.0 | 0.0 | 0.00 | 0.01 | 0.01 | 96 | 1004.0 |
| 20260510051953 | 54 | 221 | 0.0 | 0.0 | 0.00 | 0.01 | 0.01 | 96 | 1004.2 |
| 20260510051448 | 54 | 218 | 0.0 | 0.0 | 0.00 | 0.01 | 0.01 | 96 | 1004.0 |
| 20260510050944 | 54 | 216 | 0.0 | 0.0 | 0.00 | 0.01 | 0.01 | 95 | 1003.7 |
| 20260510050442 | 54 | 215 | 0.0 | 0.0 | 0.00 | 0.01 | 0.01 | 95 | 1003.5 |
| 20260510045939 | 54 | 215 | 0.0 | 0.0 | 0.00 | 0.01 | 0.01 | 94 | 1003.3 |
| 20260510045436 | 54 | 215 | 0.0 | 0.0 | 0.00 | 0.01 | 0.01 | 94 | 1003.3 |
| 20260510044933 | 54 | 210 | 0.0 | 0.0 | 0.07 | 0.01 | 0.01 | 94 | 1003.1 |
| 20260510044430 | 55 | 209 | 0.0 | 0.0 | 0.07 | 0.01 | 0.01 | 93 | 1003.2 |
| 20260510043926 | 55 | 209 | 0.0 | 0.0 | 0.00 | 0.00 | 0.00 | 93 | 1002.9 |
| 20260510043422 | 55 | 208 | 0.0 | 0.0 | 0.00 | 0.00 | 0.00 | 93 | 1002.4 |
| 20260510042921 | 55 | 208 | 0.0 | 0.9 | 0.00 | 0.00 | 0.00 | 93 | 1002.2 |
| 20260510042416 | 55 | 208 | 0.0 | 0.0 | 0.00 | 0.00 | 0.00 | 93 | 1002.5 |
| 20260510041912 | 55 | 207 | 0.0 | 0.0 | 0.00 | 0.00 | 0.00 | 94 | 1002.2 |
| 20260510041409 | 55 | 208 | 0.9 | 0.9 | 0.00 | 0.00 | 0.00 | 94 | 1002.2 |
| 20260510040907 | 55 | 207 | 0.0 | 0.9 | 0.00 | 0.00 | 0.00 | 94 | 1002.2 |
| 20260510040404 | 55 | 207 | 0.0 | 0.9 | 0.00 | 0.00 | 0.00 | 95 | 1002.1 |
| 20260510035859 | 55 | 207 | 0.0 | 0.0 | 0.00 | 0.25 | 0.25 | 94 | 1002.3 |
| 20260510035356 | 55 | 207 | 0.0 | 0.9 | 0.00 | 0.25 | 0.25 | 94 | 1002.3 |
| 20260510034851 | 55 | 207 | 0.0 | 0.0 | 0.00 | 0.25 | 0.25 | 94 | 1002.0 |
| 20260510034349 | 55 | 207 | 0.0 | 0.0 | 0.12 | 0.25 | 0.25 | 93 | 1002.2 |
| 20260510033845 | 56 | 208 | 0.9 | 0.9 | 0.12 | 0.25 | 0.25 | 93 | 1002.2 |
| 20260510033342 | 55 | 261 | 0.9 | 2.6 | 0.12 | 0.23 | 0.23 | 93 | 1002.9 |
| 20260510032838 | 55 | 2 | 0.9 | 1.7 | 0.17 | 0.23 | 0.23 | 93 | 1001.8 |
| 20260510032336 | 55 | 237 | 0.9 | 1.7 | 0.05 | 0.21 | 0.21 | 92 | 1002.5 |
| 20260510031831 | 55 | 207 | 0.9 | 1.7 | 0.07 | 0.20 | 0.20 | 92 | 1002.3 |
| 20260510031326 | 55 | 206 | 1.7 | 1.7 | 0.07 | 0.20 | 0.20 | 92 | 1001.9 |
| 20260510030821 | 55 | 234 | 0.9 | 1.7 | 0.00 | 0.19 | 0.19 | 92 | 1002.4 |
| 20260510030318 | 55 | 234 | 0.0 | 0.0 | 0.00 | 0.19 | 0.19 | 92 | 1002.3 |
| 20260510025815 | 55 | 234 | 0.0 | 0.9 | 0.00 | 0.19 | 0.19 | 92 | 1002.4 |
| 20260510025312 | 55 | 234 | 0.9 | 0.9 | 0.00 | 0.19 | 0.19 | 92 | 1002.3 |
| 20260510024808 | 55 | 234 | 0.0 | 0.0 | 0.00 | 0.19 | 0.19 | 93 | 1002.2 |
| 20260510024300 | 55 | 234 | 0.0 | 0.0 | 0.00 | 0.19 | 0.19 | 93 | 1002.1 |
| 20260510023756 | 55 | 234 | 0.0 | 0.9 | 0.00 | 0.19 | 0.19 | 93 | 1002.3 |
| 20260510023253 | 55 | 234 | 0.0 | 0.0 | 0.00 | 0.19 | 0.19 | 93 | 1001.9 |
| 20260510022750 | 55 | 234 | 0.0 | 0.9 | 0.00 | 0.19 | 0.19 | 93 | 1002.0 |
| 20260510022249 | 55 | 278 | 0.0 | 1.7 | 0.07 | 0.19 | 0.19 | 94 | 1002.4 |
| 20260510021749 | 55 | 277 | 0.0 | 1.7 | 0.07 | 0.19 | 0.19 | 95 | 1002.6 |
| 20260510021247 | 55 | 251 | 1.7 | 2.6 | 0.00 | 0.18 | 0.18 | 96 | 1002.6 |
| 20260510020742 | 55 | 252 | 0.0 | 0.0 | 0.00 | 0.18 | 0.18 | 96 | 1002.1 |
| 20260510020237 | 54 | 252 | 0.0 | 0.0 | 0.00 | 0.18 | 0.18 | 96 | 1001.7 |
| 20260510015733 | 54 | 252 | 0.0 | 0.0 | 0.00 | 0.18 | 0.18 | 96 | 1001.9 |
| 20260510015229 | 54 | 252 | 0.0 | 0.0 | 0.00 | 0.18 | 0.18 | 96 | 1001.8 |
| 20260510014724 | 54 | 252 | 0.0 | 0.0 | 0.00 | 0.18 | 0.18 | 96 | 1001.8 |
| 20260510014222 | 54 | 252 | 0.0 | 0.0 | 0.00 | 0.18 | 0.18 | 96 | 1001.6 |
| 20260510013718 | 54 | 252 | 0.0 | 0.0 | 0.00 | 0.18 | 0.18 | 96 | 1001.7 |
| 20260510013213 | 54 | 252 | 0.0 | 0.0 | 0.00 | 0.18 | 0.18 | 96 | 1001.5 |
| 20260510012708 | 54 | 252 | 0.0 | 0.0 | 0.00 | 0.18 | 0.18 | 96 | 1001.5 |
| 20260510012203 | 54 | 252 | 0.0 | 0.0 | 0.00 | 0.18 | 0.18 | 96 | 1001.5 |
| 20260510011658 | 54 | 252 | 0.9 | 0.9 | 0.00 | 0.18 | 0.18 | 96 | 1001.7 |
| 20260510011154 | 54 | 252 | 0.0 | 0.0 | 0.00 | 0.18 | 0.18 | 95 | 1001.5 |
| 20260510010650 | 55 | 252 | 0.0 | 0.0 | 0.00 | 0.18 | 0.18 | 95 | 1001.6 |
| 20260510010148 | 55 | 252 | 0.0 | 0.0 | 0.00 | 0.18 | 0.18 | 95 | 1001.3 |
| 20260510005644 | 55 | 252 | 0.0 | 0.0 | 0.00 | 0.18 | 0.18 | 95 | 1001.5 |
| 20260510005141 | 55 | 252 | 0.0 | 0.0 | 0.00 | 0.18 | 0.18 | 95 | 1001.4 |
| 20260510004639 | 55 | 252 | 0.0 | 0.0 | 0.00 | 0.18 | 0.18 | 94 | 1001.5 |
| 20260510004137 | 55 | 252 | 0.0 | 0.0 | 0.00 | 0.18 | 0.18 | 94 | 1001.2 |
| 20260510003634 | 55 | 252 | 0.0 | 0.0 | 0.00 | 0.18 | 0.18 | 94 | 1001.3 |
| 20260510003129 | 55 | 252 | 0.0 | 0.0 | 0.00 | 0.18 | 0.18 | 94 | 1001.4 |
| 20260510002629 | 56 | 252 | 0.0 | 0.0 | 0.00 | 0.18 | 0.18 | 94 | 1001.1 |
| 20260510002126 | 56 | 252 | 0.0 | 0.0 | 0.00 | 0.18 | 0.18 | 94 | 1001.4 |
| 20260510001623 | 56 | 252 | 0.0 | 0.9 | 0.00 | 0.18 | 0.18 | 94 | 1001.6 |
| 20260510001122 | 56 | 252 | 0.9 | 0.9 | 0.00 | 0.18 | 0.18 | 94 | 1001.3 |
| 20260510000622 | 56 | 252 | 0.0 | 0.0 | 0.00 | 0.18 | 0.18 | 94 | 1001.3 |
| 20260510000120 | 56 | 252 | 0.0 | 0.0 | 0.00 | 0.18 | 0.18 | 94 | 1001.3 |
| 20260509235616 | 56 | 253 | 0.0 | 0.9 | 0.00 | 0.18 | 0.18 | 94 | 1001.2 |
| 20260509235113 | 56 | 252 | 0.0 | 1.7 | 0.00 | 0.18 | 0.18 | 94 | 1001.2 |
| 20260509234608 | 56 | 254 | 0.0 | 0.0 | 0.00 | 0.18 | 0.18 | 94 | 1001.3 |
| 20260509234107 | 56 | 255 | 0.0 | 0.9 | 0.00 | 0.18 | 0.18 | 95 | 1001.2 |
| 20260509233604 | 56 | 256 | 0.9 | 1.7 | 0.00 | 0.18 | 0.18 | 94 | 1001.2 |
| 20260509233101 | 56 | 257 | 0.0 | 0.9 | 0.00 | 0.18 | 0.18 | 94 | 1001.2 |
| 20260509232557 | 56 | 256 | 0.0 | 0.0 | 0.05 | 0.18 | 0.18 | 94 | 1001.1 |
| 20260509232054 | 56 | 257 | 0.0 | 0.0 | 0.12 | 0.18 | 0.18 | 93 | 1001.2 |
| 20260509231551 | 56 | 269 | 0.9 | 1.7 | 0.24 | 0.17 | 0.17 | 93 | 1001.3 |
| 20260509231049 | 56 | 280 | 2.6 | 2.6 | 0.35 | 0.16 | 0.16 | 92 | 1001.8 |
| 20260509230545 | 56 | 273 | 1.7 | 5.2 | 0.42 | 0.13 | 0.13 | 92 | 1001.8 |
| 20260509230043 | 56 | 310 | 2.6 | 6.1 | 0.47 | 0.10 | 0.10 | 91 | 1001.7 |
| 20260509225537 | 56 | 308 | 2.6 | 4.3 | 0.35 | 0.06 | 0.06 | 89 | 1000.5 |
| 20260509225033 | 57 | 316 | 4.3 | 7.8 | 0.12 | 0.02 | 0.02 | 86 | 1000.5 |
| 20260509224529 | 62 | 300 | 5.2 | 7.0 | 0.00 | 0.00 | 0.00 | 75 | 1000.4 |
| 20260509224026 | 68 | 318 | 4.3 | 5.2 | 0.00 | 0.00 | 0.00 | 49 | 999.8 |
| 20260509223523 | 68 | 307 | 2.6 | 4.3 | 0.00 | 0.00 | 0.00 | 48 | 999.1 |
| 20260509223021 | 68 | 261 | 1.7 | 4.3 | 0.00 | 0.00 | 0.00 | 52 | 998.7 |
| 20260509222516 | 68 | 269 | 1.7 | 1.7 | 0.00 | 0.00 | 0.00 | 51 | 998.6 |
| 20260509222012 | 68 | 227 | 0.9 | 1.7 | 0.00 | 0.00 | 0.00 | 50 | 998.5 |
| 20260509221508 | 69 | 238 | 1.7 | 1.7 | 0.00 | 0.00 | 0.00 | 49 | 998.8 |
| 20260509221004 | 68 | 222 | 1.7 | 4.3 | 0.00 | 0.00 | 0.00 | 49 | 998.6 |
| 20260509220501 | 68 | 25 | 1.7 | 1.7 | 0.00 | 0.00 | 0.00 | 49 | 998.9 |
| 20260509215956 | 69 | 265 | 1.7 | 1.7 | 0.00 | 0.00 | 0.00 | 52 | 998.6 |
| 20260509215452 | 69 | 274 | 0.9 | 1.7 | 0.00 | 0.00 | 0.00 | 51 | 998.7 |
| 20260509214950 | 69 | 252 | 2.6 | 2.6 | 0.00 | 0.00 | 0.00 | 50 | 998.7 |
| 20260509214447 | 69 | 236 | 2.6 | 5.2 | 0.00 | 0.00 | 0.00 | 49 | 998.7 |
| 20260509213944 | 69 | 217 | 2.6 | 2.6 | 0.00 | 0.00 | 0.00 | 49 | 998.2 |
| 20260509213439 | 69 | 243 | 0.9 | 1.7 | 0.00 | 0.00 | 0.00 | 49 | 998.3 |
| 20260509212937 | 69 | 258 | 0.9 | 4.3 | 0.00 | 0.00 | 0.00 | 51 | 998.6 |
| 20260509212435 | 69 | 234 | 1.7 | 4.3 | 0.00 | 0.00 | 0.00 | 49 | 998.2 |
| 20260509211930 | 70 | 228 | 2.6 | 4.3 | 0.00 | 0.00 | 0.00 | 48 | 998.3 |
| 20260509211426 | 70 | 225 | 1.7 | 1.7 | 0.00 | 0.00 | 0.00 | 51 | 998.5 |
| 20260509210923 | 70 | 246 | 0.9 | 1.7 | 0.00 | 0.00 | 0.00 | 50 | 998.5 |
| 20260509210420 | 70 | 226 | 1.7 | 2.6 | 0.00 | 0.00 | 0.00 | 49 | 998.6 |
| 20260509205915 | 70 | 254 | 3.5 | 4.3 | 0.00 | 0.00 | 0.00 | 50 | 998.8 |
| 20260509205415 | 69 | 242 | 2.6 | 2.6 | 0.00 | 0.00 | 0.00 | 52 | 998.9 |
| 20260509204912 | 70 | 110 | 2.6 | 5.2 | 0.00 | 0.00 | 0.00 | 51 | 999.0 |
| 20260509204408 | 70 | 250 | 2.6 | 2.6 | 0.00 | 0.00 | 0.00 | 53 | 999.0 |
| 20260509203904 | 70 | 161 | 2.6 | 2.6 | 0.00 | 0.00 | 0.00 | 52 | 999.1 |
| 20260509203401 | 70 | 231 | 1.7 | 2.6 | 0.00 | 0.00 | 0.00 | 52 | 999.2 |
| 20260509202858 | 70 | 274 | 3.5 | 5.2 | 0.00 | 0.00 | 0.00 | 52 | 999.0 |
| 20260509202354 | 70 | 206 | 0.9 | 2.6 | 0.00 | 0.00 | 0.00 | 52 | 999.5 |
| 20260509201849 | 70 | 136 | 0.9 | 1.7 | 0.00 | 0.00 | 0.00 | 52 | 999.5 |
| 20260509201345 | 69 | 260 | 1.7 | 1.7 | 0.00 | 0.00 | 0.00 | 52 | 999.5 |
| 20260509200842 | 70 | 229 | 0.9 | 2.6 | 0.00 | 0.00 | 0.00 | 52 | 999.7 |
| 20260509200336 | 70 | 230 | 0.9 | 4.3 | 0.00 | 0.00 | 0.00 | 52 | 999.7 |
| 20260509195834 | 69 | 256 | 2.6 | 2.6 | 0.00 | 0.00 | 0.00 | 51 | 999.7 |
| 20260509195334 | 70 | 233 | 1.7 | 4.3 | 0.00 | 0.00 | 0.00 | 50 | 999.7 |
| 20260509194833 | 70 | 257 | 0.9 | 5.2 | 0.00 | 0.00 | 0.00 | 48 | 999.6 |
| 20260509194330 | 70 | 240 | 1.7 | 2.6 | 0.00 | 0.00 | 0.00 | 49 | 999.9 |
| 20260509193827 | 70 | 240 | 0.9 | 1.7 | 0.00 | 0.00 | 0.00 | 49 | 1000.1 |
| 20260509193321 | 70 | 256 | 0.9 | 4.3 | 0.00 | 0.00 | 0.00 | 53 | 999.9 |
| 20260509192817 | 69 | 343 | 1.7 | 2.6 | 0.00 | 0.00 | 0.00 | 52 | 1000.0 |
| 20260509192314 | 70 | 237 | 3.5 | 4.3 | 0.00 | 0.00 | 0.00 | 52 | 1000.3 |
| 20260509191808 | 69 | 259 | 2.6 | 2.6 | 0.00 | 0.00 | 0.00 | 52 | 1000.4 |
| 20260509191305 | 69 | 127 | 2.6 | 4.3 | 0.00 | 0.00 | 0.00 | 52 | 1000.2 |
| 20260509190801 | 69 | 232 | 0.9 | 1.7 | 0.00 | 0.00 | 0.00 | 52 | 1000.4 |
| 20260509190258 | 69 | 252 | 2.6 | 4.3 | 0.00 | 0.00 | 0.00 | 52 | 1000.5 |
| 20260509185755 | 68 | 250 | 2.6 | 4.3 | 0.00 | 0.00 | 0.00 | 53 | 1000.6 |
| 20260509185251 | 68 | 246 | 2.6 | 5.2 | 0.00 | 0.00 | 0.00 | 53 | 1000.5 |
| 20260509184749 | 68 | 43 | 0.9 | 2.6 | 0.00 | 0.00 | 0.00 | 54 | 1000.5 |
| 20260509184247 | 68 | 241 | 1.7 | 2.6 | 0.00 | 0.00 | 0.00 | 53 | 1000.7 |
| 20260509183743 | 67 | 252 | 2.6 | 2.6 | 0.00 | 0.00 | 0.00 | 54 | 1000.8 |
| 20260509183238 | 67 | 242 | 0.9 | 4.3 | 0.00 | 0.00 | 0.00 | 55 | 1000.8 |
| 20260509182734 | 67 | 236 | 1.7 | 2.6 | 0.00 | 0.00 | 0.00 | 55 | 1000.8 |
| 20260509182231 | 67 | 259 | 0.0 | 4.3 | 0.00 | 0.00 | 0.00 | 55 | 1000.6 |
| 20260509181729 | 67 | 233 | 1.7 | 4.3 | 0.00 | 0.00 | 0.00 | 56 | 1000.9 |
| 20260509181226 | 67 | 270 | 0.9 | 2.6 | 0.00 | 0.00 | 0.00 | 55 | 1000.6 |
| 20260509180723 | 68 | 248 | 2.6 | 4.3 | 0.00 | 0.00 | 0.00 | 52 | 1000.7 |
| 20260509180220 | 68 | 247 | 0.9 | 4.3 | 0.00 | 0.00 | 0.00 | 53 | 1000.5 |
| 20260509175716 | 68 | 127 | 0.9 | 2.6 | 0.00 | 0.00 | 0.00 | 53 | 1000.8 |
| 20260509175212 | 68 | 333 | 1.7 | 2.6 | 0.00 | 0.00 | 0.00 | 53 | 1000.5 |
| 20260509174708 | 68 | 318 | 1.7 | 2.6 | 0.00 | 0.00 | 0.00 | 55 | 1000.6 |
| 20260509174203 | 67 | 260 | 0.9 | 4.3 | 0.00 | 0.00 | 0.00 | 55 | 1000.9 |
| 20260509173700 | 67 | 246 | 2.6 | 4.3 | 0.00 | 0.00 | 0.00 | 57 | 1001.1 |
| 20260509173155 | 66 | 214 | 2.6 | 4.3 | 0.00 | 0.00 | 0.00 | 56 | 1001.1 |
| 20260509172652 | 66 | 252 | 3.5 | 5.2 | 0.00 | 0.00 | 0.00 | 57 | 1000.9 |
| 20260509172148 | 66 | 259 | 1.7 | 2.6 | 0.00 | 0.00 | 0.00 | 58 | 1001.2 |
| 20260509171643 | 67 | 197 | 0.9 | 2.6 | 0.00 | 0.00 | 0.00 | 57 | 1001.0 |
| 20260509171140 | 67 | 7 | 1.7 | 2.6 | 0.00 | 0.00 | 0.00 | 54 | 1001.0 |
| 20260509170637 | 67 | 259 | 1.7 | 1.7 | 0.00 | 0.00 | 0.00 | 55 | 1000.9 |
| 20260509170133 | 67 | 252 | 1.7 | 2.6 | 0.00 | 0.00 | 0.00 | 56 | 1000.9 |
| 20260509165631 | 66 | 128 | 0.9 | 4.3 | 0.00 | 0.00 | 0.00 | 57 | 1001.0 |
| 20260509165127 | 66 | 265 | 1.7 | 1.7 | 0.00 | 0.00 | 0.00 | 59 | 1001.0 |
| 20260509164623 | 66 | 287 | 1.7 | 2.6 | 0.00 | 0.00 | 0.00 | 58 | 1001.0 |
| 20260509164119 | 66 | 274 | 0.9 | 1.7 | 0.00 | 0.00 | 0.00 | 59 | 1001.1 |
| 20260509163617 | 66 | 245 | 1.7 | 2.6 | 0.00 | 0.00 | 0.00 | 59 | 1001.0 |
| 20260509163112 | 66 | 205 | 1.7 | 1.7 | 0.00 | 0.00 | 0.00 | 58 | 1001.0 |
| 20260509162610 | 65 | 273 | 0.9 | 1.7 | 0.00 | 0.00 | 0.00 | 60 | 1001.0 |
| 20260509162105 | 64 | 243 | 1.7 | 1.7 | 0.00 | 0.00 | 0.00 | 64 | 1001.3 |
| 20260509161557 | 64 | 260 | 1.7 | 1.7 | 0.00 | 0.00 | 0.00 | 61 | 1001.3 |
| 20260509161056 | 64 | 252 | 1.7 | 1.7 | 0.00 | 0.00 | 0.00 | 62 | 1001.3 |
| 20260509160553 | 64 | 243 | 0.9 | 1.7 | 0.00 | 0.00 | 0.00 | 62 | 1001.4 |
| 20260509160048 | 63 | 246 | 0.9 | 1.7 | 0.00 | 0.00 | 0.00 | 66 | 1001.6 |
| 20260509155545 | 64 | 143 | 1.7 | 1.7 | 0.00 | 0.00 | 0.00 | 63 | 1001.6 |
| 20260509155041 | 65 | 279 | 1.7 | 1.7 | 0.00 | 0.00 | 0.00 | 66 | 1001.6 |
| 20260509154537 | 64 | 264 | 1.7 | 1.7 | 0.00 | 0.00 | 0.00 | 63 | 1001.5 |
| 20260509154035 | 63 | 250 | 0.9 | 2.6 | 0.00 | 0.00 | 0.00 | 68 | 1001.6 |
| 20260509153532 | 64 | 267 | 1.7 | 1.7 | 0.00 | 0.00 | 0.00 | 68 | 1001.9 |
| 20260509153029 | 64 | 260 | 2.6 | 2.6 | 0.00 | 0.00 | 0.00 | 67 | 1001.6 |
| 20260509152524 | 64 | 265 | 0.9 | 4.3 | 0.00 | 0.00 | 0.00 | 67 | 1001.8 |
| 20260509152021 | 63 | 238 | 1.7 | 2.6 | 0.00 | 0.00 | 0.00 | 71 | 1001.5 |
| 20260509151518 | 62 | 213 | 0.9 | 2.6 | 0.00 | 0.00 | 0.00 | 69 | 1001.6 |
| 20260509151016 | 62 | 291 | 0.9 | 2.6 | 0.00 | 0.00 | 0.00 | 71 | 1001.5 |
| 20260509150513 | 61 | 268 | 0.9 | 1.7 | 0.00 | 0.00 | 0.00 | 75 | 1001.5 |
| 20260509150012 | 60 | 265 | 0.0 | 0.9 | 0.00 | 0.00 | 0.00 | 78 | 1001.6 |
| 20260509145507 | 60 | 265 | 0.9 | 2.6 | 0.00 | 0.00 | 0.00 | 79 | 1001.4 |
| 20260509145002 | 60 | 258 | 2.6 | 2.6 | 0.00 | 0.00 | 0.00 | 79 | 1001.7 |
| 20260509144459 | 59 | 232 | 0.0 | 0.9 | 0.00 | 0.00 | 0.00 | 83 | 1001.5 |
| 20260509143956 | 58 | 279 | 0.9 | 0.9 | 0.00 | 0.00 | 0.00 | 83 | 1001.6 |
| 20260509143453 | 59 | 250 | 2.6 | 2.6 | 0.00 | 0.00 | 0.00 | 84 | 1001.8 |
| 20260509142950 | 58 | 242 | 0.9 | 1.7 | 0.00 | 0.00 | 0.00 | 84 | 1001.5 |
| 20260509142446 | 58 | 155 | 0.0 | 0.0 | 0.00 | 0.00 | 0.00 | 84 | 1001.7 |
| 20260509141942 | 57 | 210 | 0.0 | 0.9 | 0.00 | 0.00 | 0.00 | 86 | 1001.6 |
| 20260509141438 | 57 | 220 | 0.0 | 0.0 | 0.00 | 0.00 | 0.00 | 88 | 1001.4 |
| 20260509140935 | 57 | 221 | 0.0 | 0.9 | 0.00 | 0.00 | 0.00 | 88 | 1001.7 |
| 20260509140431 | 56 | 218 | 0.0 | 1.7 | 0.00 | 0.00 | 0.00 | 88 | 1001.7 |
| 20260509135930 | 56 | 102 | 0.9 | 2.6 | 0.00 | 0.00 | 0.00 | 88 | 1001.9 |
| 20260509135427 | 56 | 238 | 0.9 | 1.7 | 0.00 | 0.00 | 0.00 | 88 | 1001.8 |
| 20260509134925 | 56 | 237 | 0.9 | 1.7 | 0.00 | 0.00 | 0.00 | 88 | 1001.7 |
| 20260509134422 | 57 | 237 | 0.0 | 1.7 | 0.00 | 0.00 | 0.00 | 87 | 1001.6 |
| 20260509133919 | 57 | 237 | 1.7 | 1.7 | 0.00 | 0.00 | 0.00 | 87 | 1001.6 |
| 20260509133415 | 57 | 228 | 1.7 | 1.7 | 0.00 | 0.00 | 0.00 | 88 | 1001.6 |
| 20260509132914 | 57 | 235 | 0.9 | 2.6 | 0.00 | 0.00 | 0.00 | 87 | 1001.8 |
| 20260509132412 | 58 | 226 | 0.9 | 1.7 | 0.00 | 0.00 | 0.00 | 87 | 1001.8 |
| 20260509131908 | 58 | 225 | 0.0 | 0.9 | 0.00 | 0.00 | 0.00 | 86 | 1001.8 |
| 20260509131406 | 57 | 212 | 1.7 | 1.7 | 0.00 | 0.00 | 0.00 | 90 | 1001.6 |
| 20260509130902 | 56 | 212 | 0.9 | 1.7 | 0.00 | 0.00 | 0.00 | 91 | 1001.6 |
| 20260509130357 | 55 | 194 | 0.0 | 0.9 | 0.00 | 0.00 | 0.00 | 92 | 1001.7 |
| 20260509125855 | 55 | 196 | 0.0 | 0.0 | 0.00 | 0.00 | 0.00 | 93 | 1001.7 |
| 20260509125351 | 55 | 196 | 0.0 | 0.9 | 0.00 | 0.00 | 0.00 | 93 | 1001.9 |
| 20260509124847 | 55 | 182 | 0.0 | 0.0 | 0.00 | 0.00 | 0.00 | 93 | 1001.8 |
| 20260509124344 | 55 | 151 | 0.9 | 0.9 | 0.00 | 0.00 | 0.00 | 93 | 1001.8 |
| 20260509123842 | 55 | 153 | 0.0 | 0.0 | 0.00 | 0.00 | 0.00 | 94 | 1001.6 |
| 20260509123339 | 54 | 153 | 0.0 | 0.9 | 0.00 | 0.00 | 0.00 | 94 | 1001.7 |
| 20260509122835 | 54 | 153 | 0.0 | 0.9 | 0.00 | 0.00 | 0.00 | 94 | 1002.1 |
| 20260509122332 | 54 | 153 | 0.0 | 0.9 | 0.00 | 0.00 | 0.00 | 94 | 1002.1 |
| 20260509121829 | 54 | 154 | 0.0 | 0.0 | 0.00 | 0.00 | 0.00 | 94 | 1002.1 |
| 20260509121326 | 54 | 154 | 0.0 | 0.0 | 0.00 | 0.00 | 0.00 | 95 | 1002.1 |
| 20260509120824 | 54 | 154 | 0.0 | 0.0 | 0.00 | 0.00 | 0.00 | 95 | 1002.2 |
| 20260509120322 | 54 | 154 | 0.0 | 0.0 | 0.00 | 0.00 | 0.00 | 95 | 1002.0 |